Envira, Brazil
Current Conditions -  °F | °C
As of 7:00 PM on Wednesday 26 Nov 2014 (Local Time) from SBTK Reporting Station
Overcast Overcast  
Wind Chill: 77°   Ceiling: 2000
Heat Index: 78°   Visibility: 6mi
Dew Point: 75°   Wind: 7mph
Humidity: 94%   Direction: 80°E
Pressure: 29.77"   Gusts: NA
Location:  7.43°S, 70.02°W
Report Text: SBTK 262300Z 08006KT 9999 OVC020 25/24 Q1008
Loading
Personal Weather Stations






























Interactive Weather Map New forecast layout! Learn more

10-Day Weather Forecast

Advertisements
Track Severe Weather on mobile